Marshall Army Air Field
KFRI : now visible

Airfield :











YOU CAN JOIN US ON...

 
LOGIN :

Register | Disclaimer

   EN    FR    IT 

 









Legend :    VFR   Marginal VFR   IFR   Intensive IFR   Very Intensive IFR
Visi :
Ceiling :
>= 8 km
>= 3000ft
5 to 8 km
1000 to 3000 ft
1500m to 5 km
500 to 1000 ft
800 to 1500m
200 to 500 ft
< 800m
< 200 ft
Symbols :   Thunderstorms  Fog  Heavy snow  Heavy precipitations  Wind > 20 kt






- Airport Elevation : 1065 ft


KFRI - Marshall Army Air Field

CURRENT METAR :
  • 231056Z AUTO 05007KT 10SM OVC040 10/07 A2984 RMK AO2 SLP099 T00990070

EXPIRED METARs :
  • 230956Z AUTO 05008KT 10SM BKN045 10/08 A2982 RMK AO2 SLP092 T01040078
  • 230856Z AUTO 04006KT 10SM BKN045 11/09 A2984 RMK AO2 LTG DSNT S SLP098 T01130089 55006

TAF TAF KFRI
Valid from the 22 at 21:00 until the 24 at 03:00 UTC


222100Z 2221/2403 24009KT 9999 SKC QNH2985INS
BECMG 2312/2313 09006KT 8000 BR SCT013 QNH2974INS
BECMG 2321/2322 09010G15KT 8000 BR BKN005 510052 QNH2966INS TX26/2221Z TN12/2311Z LAST NO AMDS AFT 2221 NEXT 2505
KZKC FIR / North America



MET'MAP, your aeronautical weather chart ! - Copyright ORBIFLY December 2007 - Disclaimer

ORBIFLY MET'MAP TEAM :

Programming & Development : Alexandra Zaïnal
Concept & original design : Baudouin d'Aumeries
Assistance for programming : Marc-Olivier Méhu
Technical & hardware support : Manuel Goepfert

Contact : metmap@orbifly.com




SOURCES & CREDITS :

   NOAA       Earth
Advisory